sensor_id;sensor_type;location;lat;lon;timestamp;P1;durP1;ratioP1;P2;durP2;ratioP2
68126;SDS011;54931;52.098;21.006;2023-04-25T00:01:43;23.90;;;14.40;;
68126;SDS011;54931;52.098;21.006;2023-04-25T00:04:10;17.70;;;11.80;;
68126;SDS011;54931;52.098;21.006;2023-04-25T00:06:39;27.60;;;16.00;;
68126;SDS011;54931;52.098;21.006;2023-04-25T00:09:07;25.50;;;14.50;;
68126;SDS011;54931;52.098;21.006;2023-04-25T00:11:37;24.20;;;15.00;;
68126;SDS011;54931;52.098;21.006;2023-04-25T00:14:05;20.20;;;12.60;;
68126;SDS011;54931;52.098;21.006;2023-04-25T00:16:34;18.40;;;11.50;;
68126;SDS011;54931;52.098;21.006;2023-04-25T00:19:03;22.10;;;12.70;;
68126;SDS011;54931;52.098;21.006;2023-04-25T00:21:31;25.10;;;13.00;;
68126;SDS011;54931;52.098;21.006;2023-04-25T00:23:59;27.80;;;14.80;;
68126;SDS011;54931;52.098;21.006;2023-04-25T00:26:27;27.80;;;14.80;;
68126;SDS011;54931;52.098;21.006;2023-04-25T00:28:55;22.00;;;12.90;;
68126;SDS011;54931;52.098;21.006;2023-04-25T00:31:23;26.70;;;16.00;;
68126;SDS011;54931;52.098;21.006;2023-04-25T00:33:50;34.20;;;17.90;;
68126;SDS011;54931;52.098;21.006;2023-04-25T00:36:18;30.80;;;17.30;;
68126;SDS011;54931;52.098;21.006;2023-04-25T00:38:46;21.50;;;12.70;;
68126;SDS011;54931;52.098;21.006;2023-04-25T00:41:14;23.70;;;13.90;;
68126;SDS011;54931;52.098;21.006;2023-04-25T00:43:44;22.40;;;12.80;;
68126;SDS011;54931;52.098;21.006;2023-04-25T00:46:13;22.50;;;13.40;;
68126;SDS011;54931;52.098;21.006;2023-04-25T00:48:41;23.30;;;14.50;;
68126;SDS011;54931;52.098;21.006;2023-04-25T00:51:13;24.30;;;13.90;;
68126;SDS011;54931;52.098;21.006;2023-04-25T00:53:47;22.70;;;13.10;;
68126;SDS011;54931;52.098;21.006;2023-04-25T00:56:17;23.40;;;14.20;;
68126;SDS011;54931;52.098;21.006;2023-04-25T00:58:45;28.70;;;15.20;;
68126;SDS011;54931;52.098;21.006;2023-04-25T01:01:13;21.50;;;12.30;;
68126;SDS011;54931;52.098;21.006;2023-04-25T01:03:41;27.00;;;14.80;;
68126;SDS011;54931;52.098;21.006;2023-04-25T01:06:10;26.20;;;15.50;;
68126;SDS011;54931;52.098;21.006;2023-04-25T01:08:39;24.10;;;13.50;;
68126;SDS011;54931;52.098;21.006;2023-04-25T01:11:06;25.60;;;15.70;;
68126;SDS011;54931;52.098;21.006;2023-04-25T01:13:35;27.40;;;14.80;;
68126;SDS011;54931;52.098;21.006;2023-04-25T01:16:04;24.60;;;13.10;;
68126;SDS011;54931;52.098;21.006;2023-04-25T01:18:32;22.90;;;13.20;;
68126;SDS011;54931;52.098;21.006;2023-04-25T01:21:11;24.00;;;14.00;;
68126;SDS011;54931;52.098;21.006;2023-04-25T01:23:40;25.90;;;14.60;;
68126;SDS011;54931;52.098;21.006;2023-04-25T01:26:10;23.80;;;13.90;;
68126;SDS011;54931;52.098;21.006;2023-04-25T01:28:40;24.10;;;14.10;;
68126;SDS011;54931;52.098;21.006;2023-04-25T01:31:09;25.20;;;14.60;;
68126;SDS011;54931;52.098;21.006;2023-04-25T01:33:37;21.00;;;12.50;;
68126;SDS011;54931;52.098;21.006;2023-04-25T01:36:06;23.00;;;13.30;;
68126;SDS011;54931;52.098;21.006;2023-04-25T01:38:34;24.20;;;13.80;;
68126;SDS011;54931;52.098;21.006;2023-04-25T01:41:02;22.80;;;13.80;;
68126;SDS011;54931;52.098;21.006;2023-04-25T01:43:30;30.00;;;16.80;;
68126;SDS011;54931;52.098;21.006;2023-04-25T01:45:58;26.50;;;15.20;;
68126;SDS011;54931;52.098;21.006;2023-04-25T01:48:27;29.10;;;15.40;;
68126;SDS011;54931;52.098;21.006;2023-04-25T01:50:55;26.10;;;14.00;;
68126;SDS011;54931;52.098;21.006;2023-04-25T01:53:23;25.10;;;14.50;;
68126;SDS011;54931;52.098;21.006;2023-04-25T01:55:52;21.30;;;12.50;;
68126;SDS011;54931;52.098;21.006;2023-04-25T01:58:19;23.40;;;13.10;;
68126;SDS011;54931;52.098;21.006;2023-04-25T02:00:47;26.20;;;13.60;;
68126;SDS011;54931;52.098;21.006;2023-04-25T02:03:15;25.90;;;13.80;;
68126;SDS011;54931;52.098;21.006;2023-04-25T02:05:43;32.80;;;17.00;;
68126;SDS011;54931;52.098;21.006;2023-04-25T02:08:11;29.20;;;16.30;;
68126;SDS011;54931;52.098;21.006;2023-04-25T02:10:39;36.30;;;18.50;;
68126;SDS011;54931;52.098;21.006;2023-04-25T02:13:07;34.30;;;17.10;;
68126;SDS011;54931;52.098;21.006;2023-04-25T02:15:35;29.90;;;16.30;;
68126;SDS011;54931;52.098;21.006;2023-04-25T02:18:03;25.00;;;13.30;;
68126;SDS011;54931;52.098;21.006;2023-04-25T02:20:33;21.20;;;11.50;;
68126;SDS011;54931;52.098;21.006;2023-04-25T02:23:02;18.90;;;11.10;;
68126;SDS011;54931;52.098;21.006;2023-04-25T02:25:31;27.90;;;14.50;;
68126;SDS011;54931;52.098;21.006;2023-04-25T02:27:58;28.40;;;15.00;;
68126;SDS011;54931;52.098;21.006;2023-04-25T02:30:27;28.80;;;13.30;;
68126;SDS011;54931;52.098;21.006;2023-04-25T02:32:55;21.70;;;11.40;;
68126;SDS011;54931;52.098;21.006;2023-04-25T02:35:23;26.60;;;13.40;;
68126;SDS011;54931;52.098;21.006;2023-04-25T02:37:52;23.10;;;11.40;;
68126;SDS011;54931;52.098;21.006;2023-04-25T02:40:19;25.60;;;12.60;;
68126;SDS011;54931;52.098;21.006;2023-04-25T02:42:48;24.60;;;12.90;;
68126;SDS011;54931;52.098;21.006;2023-04-25T02:45:16;24.20;;;12.30;;
68126;SDS011;54931;52.098;21.006;2023-04-25T02:47:44;24.20;;;12.40;;
68126;SDS011;54931;52.098;21.006;2023-04-25T02:50:12;24.70;;;12.20;;
68126;SDS011;54931;52.098;21.006;2023-04-25T02:52:40;27.20;;;13.20;;
68126;SDS011;54931;52.098;21.006;2023-04-25T02:55:08;25.30;;;13.30;;
68126;SDS011;54931;52.098;21.006;2023-04-25T02:57:37;26.20;;;12.80;;
68126;SDS011;54931;52.098;21.006;2023-04-25T03:00:05;26.50;;;12.70;;
68126;SDS011;54931;52.098;21.006;2023-04-25T03:02:35;23.60;;;12.00;;
68126;SDS011;54931;52.098;21.006;2023-04-25T03:05:03;21.50;;;11.50;;
68126;SDS011;54931;52.098;21.006;2023-04-25T03:07:32;24.90;;;12.70;;
68126;SDS011;54931;52.098;21.006;2023-04-25T03:10:00;28.00;;;12.40;;
68126;SDS011;54931;52.098;21.006;2023-04-25T03:12:28;19.30;;;10.50;;
68126;SDS011;54931;52.098;21.006;2023-04-25T03:14:56;22.60;;;12.20;;
68126;SDS011;54931;52.098;21.006;2023-04-25T03:17:24;22.50;;;11.30;;
68126;SDS011;54931;52.098;21.006;2023-04-25T03:19:51;20.30;;;11.30;;
68126;SDS011;54931;52.098;21.006;2023-04-25T03:22:19;21.20;;;11.40;;
68126;SDS011;54931;52.098;21.006;2023-04-25T03:24:47;18.20;;;10.10;;
68126;SDS011;54931;52.098;21.006;2023-04-25T03:27:15;25.10;;;12.20;;
68126;SDS011;54931;52.098;21.006;2023-04-25T03:29:43;20.90;;;10.60;;
68126;SDS011;54931;52.098;21.006;2023-04-25T03:32:11;20.30;;;10.10;;
68126;SDS011;54931;52.098;21.006;2023-04-25T03:34:39;16.70;;;10.00;;
68126;SDS011;54931;52.098;21.006;2023-04-25T03:37:07;18.20;;;9.70;;
68126;SDS011;54931;52.098;21.006;2023-04-25T03:39:35;14.70;;;9.50;;
68126;SDS011;54931;52.098;21.006;2023-04-25T03:42:03;15.70;;;9.20;;
68126;SDS011;54931;52.098;21.006;2023-04-25T03:44:31;13.10;;;8.00;;
68126;SDS011;54931;52.098;21.006;2023-04-25T03:46:59;14.70;;;8.90;;
68126;SDS011;54931;52.098;21.006;2023-04-25T03:49:30;16.20;;;9.30;;
68126;SDS011;54931;52.098;21.006;2023-04-25T03:51:58;13.70;;;8.80;;
68126;SDS011;54931;52.098;21.006;2023-04-25T03:54:27;14.90;;;9.20;;
68126;SDS011;54931;52.098;21.006;2023-04-25T03:56:54;14.80;;;8.10;;
68126;SDS011;54931;52.098;21.006;2023-04-25T03:59:22;13.50;;;7.90;;
68126;SDS011;54931;52.098;21.006;2023-04-25T04:01:50;14.90;;;7.90;;
68126;SDS011;54931;52.098;21.006;2023-04-25T04:04:18;13.90;;;7.80;;
68126;SDS011;54931;52.098;21.006;2023-04-25T04:06:46;11.80;;;7.70;;
68126;SDS011;54931;52.098;21.006;2023-04-25T04:09:14;13.10;;;7.60;;
68126;SDS011;54931;52.098;21.006;2023-04-25T04:11:42;14.10;;;8.50;;
68126;SDS011;54931;52.098;21.006;2023-04-25T04:14:10;11.40;;;7.60;;
68126;SDS011;54931;52.098;21.006;2023-04-25T04:16:38;13.80;;;8.10;;
68126;SDS011;54931;52.098;21.006;2023-04-25T04:19:06;15.90;;;8.50;;
68126;SDS011;54931;52.098;21.006;2023-04-25T04:21:34;13.30;;;8.80;;
68126;SDS011;54931;52.098;21.006;2023-04-25T04:24:02;13.00;;;8.20;;
68126;SDS011;54931;52.098;21.006;2023-04-25T04:26:32;13.50;;;8.30;;
68126;SDS011;54931;52.098;21.006;2023-04-25T04:29:00;12.80;;;8.20;;
68126;SDS011;54931;52.098;21.006;2023-04-25T04:31:29;13.70;;;9.30;;
68126;SDS011;54931;52.098;21.006;2023-04-25T04:33:57;13.10;;;8.50;;
68126;SDS011;54931;52.098;21.006;2023-04-25T04:36:25;15.00;;;9.90;;
68126;SDS011;54931;52.098;21.006;2023-04-25T04:38:54;16.30;;;9.00;;
68126;SDS011;54931;52.098;21.006;2023-04-25T04:41:23;16.40;;;9.50;;
68126;SDS011;54931;52.098;21.006;2023-04-25T04:43:51;14.90;;;9.00;;
68126;SDS011;54931;52.098;21.006;2023-04-25T04:46:20;15.60;;;10.30;;
68126;SDS011;54931;52.098;21.006;2023-04-25T04:48:48;16.00;;;10.60;;
68126;SDS011;54931;52.098;21.006;2023-04-25T04:51:16;17.30;;;10.40;;
68126;SDS011;54931;52.098;21.006;2023-04-25T04:53:45;16.90;;;11.00;;
68126;SDS011;54931;52.098;21.006;2023-04-25T04:56:12;15.30;;;10.10;;
68126;SDS011;54931;52.098;21.006;2023-04-25T04:58:40;14.70;;;8.70;;
68126;SDS011;54931;52.098;21.006;2023-04-25T05:01:08;16.20;;;11.40;;
68126;SDS011;54931;52.098;21.006;2023-04-25T05:03:36;17.10;;;11.40;;
68126;SDS011;54931;52.098;21.006;2023-04-25T05:06:05;19.00;;;11.40;;
68126;SDS011;54931;52.098;21.006;2023-04-25T05:08:33;18.50;;;11.50;;
68126;SDS011;54931;52.098;21.006;2023-04-25T05:11:01;17.30;;;12.20;;
68126;SDS011;54931;52.098;21.006;2023-04-25T05:13:29;20.50;;;11.40;;
68126;SDS011;54931;52.098;21.006;2023-04-25T05:15:57;18.40;;;11.30;;
68126;SDS011;54931;52.098;21.006;2023-04-25T05:18:25;16.40;;;10.00;;
68126;SDS011;54931;52.098;21.006;2023-04-25T05:20:53;20.60;;;12.80;;
68126;SDS011;54931;52.098;21.006;2023-04-25T05:23:21;19.70;;;11.60;;
68126;SDS011;54931;52.098;21.006;2023-04-25T05:25:49;18.40;;;12.40;;
68126;SDS011;54931;52.098;21.006;2023-04-25T05:28:17;17.70;;;11.20;;
68126;SDS011;54931;52.098;21.006;2023-04-25T05:30:44;17.50;;;12.10;;
68126;SDS011;54931;52.098;21.006;2023-04-25T05:33:12;19.80;;;11.20;;
68126;SDS011;54931;52.098;21.006;2023-04-25T05:35:39;17.90;;;10.80;;
68126;SDS011;54931;52.098;21.006;2023-04-25T05:38:08;18.20;;;11.40;;
68126;SDS011;54931;52.098;21.006;2023-04-25T05:40:35;20.20;;;12.50;;
68126;SDS011;54931;52.098;21.006;2023-04-25T05:43:03;19.70;;;11.80;;
68126;SDS011;54931;52.098;21.006;2023-04-25T05:45:31;16.80;;;11.50;;
68126;SDS011;54931;52.098;21.006;2023-04-25T05:48:00;19.40;;;11.50;;
68126;SDS011;54931;52.098;21.006;2023-04-25T05:50:28;18.20;;;11.90;;
68126;SDS011;54931;52.098;21.006;2023-04-25T05:52:55;22.80;;;12.30;;
68126;SDS011;54931;52.098;21.006;2023-04-25T05:55:23;19.40;;;12.00;;
68126;SDS011;54931;52.098;21.006;2023-04-25T05:57:51;18.00;;;11.80;;
68126;SDS011;54931;52.098;21.006;2023-04-25T06:00:18;18.70;;;12.60;;
68126;SDS011;54931;52.098;21.006;2023-04-25T06:02:46;21.30;;;13.20;;
68126;SDS011;54931;52.098;21.006;2023-04-25T06:05:14;21.00;;;13.20;;
68126;SDS011;54931;52.098;21.006;2023-04-25T06:07:42;21.40;;;14.70;;
68126;SDS011;54931;52.098;21.006;2023-04-25T06:10:11;21.10;;;12.80;;
68126;SDS011;54931;52.098;21.006;2023-04-25T06:12:39;21.30;;;13.50;;
68126;SDS011;54931;52.098;21.006;2023-04-25T06:15:07;21.70;;;12.70;;
68126;SDS011;54931;52.098;21.006;2023-04-25T06:17:35;22.80;;;13.50;;
68126;SDS011;54931;52.098;21.006;2023-04-25T06:20:04;22.30;;;13.40;;
68126;SDS011;54931;52.098;21.006;2023-04-25T06:22:33;21.80;;;13.30;;
68126;SDS011;54931;52.098;21.006;2023-04-25T06:25:01;25.20;;;13.90;;
68126;SDS011;54931;52.098;21.006;2023-04-25T06:27:32;22.90;;;13.70;;
68126;SDS011;54931;52.098;21.006;2023-04-25T06:30:00;21.80;;;12.60;;
68126;SDS011;54931;52.098;21.006;2023-04-25T06:32:30;21.20;;;13.60;;
68126;SDS011;54931;52.098;21.006;2023-04-25T06:34:58;20.30;;;12.10;;
68126;SDS011;54931;52.098;21.006;2023-04-25T06:37:26;21.20;;;12.40;;
68126;SDS011;54931;52.098;21.006;2023-04-25T06:39:54;20.10;;;13.20;;
68126;SDS011;54931;52.098;21.006;2023-04-25T06:42:22;24.00;;;13.50;;
68126;SDS011;54931;52.098;21.006;2023-04-25T06:44:49;18.50;;;12.60;;
68126;SDS011;54931;52.098;21.006;2023-04-25T06:47:17;18.20;;;11.40;;
68126;SDS011;54931;52.098;21.006;2023-04-25T06:49:45;18.80;;;12.10;;
68126;SDS011;54931;52.098;21.006;2023-04-25T06:52:13;16.10;;;10.40;;
68126;SDS011;54931;52.098;21.006;2023-04-25T06:54:41;18.30;;;12.00;;
68126;SDS011;54931;52.098;21.006;2023-04-25T06:57:09;18.40;;;11.10;;
68126;SDS011;54931;52.098;21.006;2023-04-25T06:59:38;17.40;;;11.70;;
68126;SDS011;54931;52.098;21.006;2023-04-25T07:02:06;19.80;;;11.90;;
68126;SDS011;54931;52.098;21.006;2023-04-25T07:04:35;16.00;;;11.20;;
68126;SDS011;54931;52.098;21.006;2023-04-25T07:07:02;17.40;;;10.70;;
68126;SDS011;54931;52.098;21.006;2023-04-25T07:09:30;17.70;;;10.60;;
68126;SDS011;54931;52.098;21.006;2023-04-25T07:12:01;19.40;;;11.50;;
68126;SDS011;54931;52.098;21.006;2023-04-25T07:14:29;15.30;;;9.80;;
68126;SDS011;54931;52.098;21.006;2023-04-25T07:16:57;15.80;;;10.30;;
68126;SDS011;54931;52.098;21.006;2023-04-25T07:19:25;15.60;;;10.10;;
68126;SDS011;54931;52.098;21.006;2023-04-25T07:21:53;18.60;;;11.20;;
68126;SDS011;54931;52.098;21.006;2023-04-25T07:24:21;16.60;;;10.30;;
68126;SDS011;54931;52.098;21.006;2023-04-25T07:26:49;16.30;;;10.40;;
68126;SDS011;54931;52.098;21.006;2023-04-25T07:29:17;15.50;;;10.60;;
68126;SDS011;54931;52.098;21.006;2023-04-25T07:31:45;15.10;;;9.90;;
68126;SDS011;54931;52.098;21.006;2023-04-25T07:34:13;15.10;;;9.60;;
68126;SDS011;54931;52.098;21.006;2023-04-25T07:36:40;16.60;;;10.10;;
68126;SDS011;54931;52.098;21.006;2023-04-25T07:39:08;14.00;;;9.40;;
68126;SDS011;54931;52.098;21.006;2023-04-25T07:41:36;15.50;;;9.00;;
68126;SDS011;54931;52.098;21.006;2023-04-25T07:44:04;14.80;;;9.30;;
68126;SDS011;54931;52.098;21.006;2023-04-25T07:46:32;12.80;;;8.70;;
68126;SDS011;54931;52.098;21.006;2023-04-25T07:49:00;15.90;;;9.10;;
68126;SDS011;54931;52.098;21.006;2023-04-25T07:51:28;12.90;;;9.10;;
68126;SDS011;54931;52.098;21.006;2023-04-25T07:53:56;11.60;;;8.50;;
68126;SDS011;54931;52.098;21.006;2023-04-25T07:56:24;14.30;;;8.70;;
68126;SDS011;54931;52.098;21.006;2023-04-25T07:58:52;11.60;;;8.20;;
68126;SDS011;54931;52.098;21.006;2023-04-25T08:01:19;13.10;;;8.70;;
68126;SDS011;54931;52.098;21.006;2023-04-25T08:03:49;14.60;;;8.20;;
68126;SDS011;54931;52.098;21.006;2023-04-25T08:06:17;13.80;;;8.70;;
68126;SDS011;54931;52.098;21.006;2023-04-25T08:08:45;9.80;;;7.00;;
68126;SDS011;54931;52.098;21.006;2023-04-25T08:11:13;11.50;;;8.20;;
68126;SDS011;54931;52.098;21.006;2023-04-25T08:13:41;10.80;;;7.80;;
68126;SDS011;54931;52.098;21.006;2023-04-25T08:16:09;15.70;;;8.50;;
68126;SDS011;54931;52.098;21.006;2023-04-25T08:18:36;14.30;;;8.60;;
68126;SDS011;54931;52.098;21.006;2023-04-25T08:21:04;11.00;;;7.80;;
68126;SDS011;54931;52.098;21.006;2023-04-25T08:23:33;13.20;;;8.10;;
68126;SDS011;54931;52.098;21.006;2023-04-25T08:26:02;12.40;;;7.70;;
68126;SDS011;54931;52.098;21.006;2023-04-25T08:28:31;12.40;;;7.90;;
68126;SDS011;54931;52.098;21.006;2023-04-25T08:30:59;13.50;;;8.00;;
68126;SDS011;54931;52.098;21.006;2023-04-25T08:33:27;12.20;;;8.30;;
68126;SDS011;54931;52.098;21.006;2023-04-25T08:35:55;12.50;;;7.80;;
68126;SDS011;54931;52.098;21.006;2023-04-25T08:38:23;10.50;;;7.40;;
68126;SDS011;54931;52.098;21.006;2023-04-25T08:40:51;11.50;;;7.70;;
68126;SDS011;54931;52.098;21.006;2023-04-25T08:43:19;10.50;;;7.80;;
68126;SDS011;54931;52.098;21.006;2023-04-25T08:45:47;12.60;;;7.90;;
68126;SDS011;54931;52.098;21.006;2023-04-25T08:48:16;11.70;;;8.10;;
68126;SDS011;54931;52.098;21.006;2023-04-25T08:50:53;11.60;;;8.00;;
68126;SDS011;54931;52.098;21.006;2023-04-25T08:53:30;13.80;;;8.60;;
68126;SDS011;54931;52.098;21.006;2023-04-25T08:56:01;12.70;;;8.50;;
68126;SDS011;54931;52.098;21.006;2023-04-25T08:58:30;14.70;;;8.30;;
68126;SDS011;54931;52.098;21.006;2023-04-25T09:00:59;12.00;;;8.10;;
68126;SDS011;54931;52.098;21.006;2023-04-25T09:03:27;11.60;;;8.80;;
68126;SDS011;54931;52.098;21.006;2023-04-25T09:05:55;14.70;;;9.00;;
68126;SDS011;54931;52.098;21.006;2023-04-25T09:08:23;12.40;;;7.50;;
68126;SDS011;54931;52.098;21.006;2023-04-25T09:10:52;12.00;;;7.30;;
68126;SDS011;54931;52.098;21.006;2023-04-25T09:13:27;13.20;;;9.00;;
68126;SDS011;54931;52.098;21.006;2023-04-25T09:15:57;12.20;;;8.90;;
68126;SDS011;54931;52.098;21.006;2023-04-25T09:18:28;11.90;;;9.10;;
68126;SDS011;54931;52.098;21.006;2023-04-25T09:21:09;12.80;;;8.70;;
68126;SDS011;54931;52.098;21.006;2023-04-25T09:23:48;14.10;;;9.30;;
68126;SDS011;54931;52.098;21.006;2023-04-25T09:26:20;15.30;;;9.20;;
68126;SDS011;54931;52.098;21.006;2023-04-25T09:28:48;13.30;;;9.50;;
68126;SDS011;54931;52.098;21.006;2023-04-25T09:31:22;15.10;;;9.50;;
68126;SDS011;54931;52.098;21.006;2023-04-25T09:33:59;15.50;;;9.10;;
68126;SDS011;54931;52.098;21.006;2023-04-25T09:36:30;13.60;;;9.30;;
68126;SDS011;54931;52.098;21.006;2023-04-25T09:38:59;13.00;;;7.40;;
68126;SDS011;54931;52.098;21.006;2023-04-25T09:41:28;14.90;;;9.90;;
68126;SDS011;54931;52.098;21.006;2023-04-25T09:43:57;14.50;;;8.90;;
68126;SDS011;54931;52.098;21.006;2023-04-25T09:46:33;14.50;;;9.30;;
68126;SDS011;54931;52.098;21.006;2023-04-25T09:51:35;13.40;;;8.50;;
68126;SDS011;54931;52.098;21.006;2023-04-25T09:54:03;13.60;;;10.00;;
68126;SDS011;54931;52.098;21.006;2023-04-25T09:56:35;13.80;;;9.50;;
68126;SDS011;54931;52.098;21.006;2023-04-25T09:59:07;15.40;;;9.40;;
68126;SDS011;54931;52.098;21.006;2023-04-25T10:01:38;13.50;;;9.50;;
68126;SDS011;54931;52.098;21.006;2023-04-25T10:04:11;14.20;;;9.40;;
68126;SDS011;54931;52.098;21.006;2023-04-25T10:06:41;13.80;;;9.30;;
68126;SDS011;54931;52.098;21.006;2023-04-25T10:09:11;14.80;;;10.50;;
68126;SDS011;54931;52.098;21.006;2023-04-25T10:11:41;16.50;;;9.80;;
68126;SDS011;54931;52.098;21.006;2023-04-25T10:14:10;16.00;;;10.50;;
68126;SDS011;54931;52.098;21.006;2023-04-25T10:16:41;15.50;;;9.90;;
68126;SDS011;54931;52.098;21.006;2023-04-25T10:19:10;15.40;;;10.60;;
68126;SDS011;54931;52.098;21.006;2023-04-25T10:21:48;17.90;;;10.50;;
68126;SDS011;54931;52.098;21.006;2023-04-25T10:24:19;16.50;;;10.90;;
68126;SDS011;54931;52.098;21.006;2023-04-25T10:26:48;16.60;;;10.60;;
68126;SDS011;54931;52.098;21.006;2023-04-25T10:29:27;15.90;;;10.80;;
68126;SDS011;54931;52.098;21.006;2023-04-25T10:31:55;14.90;;;10.60;;
68126;SDS011;54931;52.098;21.006;2023-04-25T10:34:38;16.80;;;10.90;;
68126;SDS011;54931;52.098;21.006;2023-04-25T10:37:10;16.40;;;10.60;;
68126;SDS011;54931;52.098;21.006;2023-04-25T10:39:42;19.30;;;11.20;;
68126;SDS011;54931;52.098;21.006;2023-04-25T10:42:11;17.50;;;11.40;;
68126;SDS011;54931;52.098;21.006;2023-04-25T10:44:39;16.50;;;10.90;;
68126;SDS011;54931;52.098;21.006;2023-04-25T10:47:08;18.70;;;11.40;;
68126;SDS011;54931;52.098;21.006;2023-04-25T10:49:41;18.40;;;11.80;;
68126;SDS011;54931;52.098;21.006;2023-04-25T10:52:33;19.50;;;12.00;;
68126;SDS011;54931;52.098;21.006;2023-04-25T10:55:05;19.70;;;11.90;;
68126;SDS011;54931;52.098;21.006;2023-04-25T10:57:40;15.80;;;9.80;;
68126;SDS011;54931;52.098;21.006;2023-04-25T11:00:20;18.20;;;12.10;;
68126;SDS011;54931;52.098;21.006;2023-04-25T11:02:59;17.60;;;11.80;;
68126;SDS011;54931;52.098;21.006;2023-04-25T11:05:33;16.20;;;11.30;;
68126;SDS011;54931;52.098;21.006;2023-04-25T11:08:12;18.80;;;11.60;;
68126;SDS011;54931;52.098;21.006;2023-04-25T11:10:44;18.60;;;11.30;;
68126;SDS011;54931;52.098;21.006;2023-04-25T11:13:12;14.80;;;10.00;;
68126;SDS011;54931;52.098;21.006;2023-04-25T11:15:40;16.40;;;11.10;;
68126;SDS011;54931;52.098;21.006;2023-04-25T11:18:08;16.00;;;10.00;;
68126;SDS011;54931;52.098;21.006;2023-04-25T11:20:36;14.00;;;9.10;;
68126;SDS011;54931;52.098;21.006;2023-04-25T11:23:04;13.20;;;9.10;;
68126;SDS011;54931;52.098;21.006;2023-04-25T11:25:32;14.10;;;9.10;;
68126;SDS011;54931;52.098;21.006;2023-04-25T11:28:01;12.90;;;9.00;;
68126;SDS011;54931;52.098;21.006;2023-04-25T11:30:30;12.70;;;8.40;;
68126;SDS011;54931;52.098;21.006;2023-04-25T11:32:58;22.30;;;8.20;;
68126;SDS011;54931;52.098;21.006;2023-04-25T11:35:26;12.70;;;7.70;;
68126;SDS011;54931;52.098;21.006;2023-04-25T11:37:55;9.60;;;7.10;;
68126;SDS011;54931;52.098;21.006;2023-04-25T11:40:22;9.80;;;6.70;;
68126;SDS011;54931;52.098;21.006;2023-04-25T11:42:50;11.70;;;7.00;;
68126;SDS011;54931;52.098;21.006;2023-04-25T11:45:18;10.20;;;6.70;;
68126;SDS011;54931;52.098;21.006;2023-04-25T11:47:46;10.60;;;6.80;;
68126;SDS011;54931;52.098;21.006;2023-04-25T11:50:14;11.60;;;6.60;;
68126;SDS011;54931;52.098;21.006;2023-04-25T11:52:44;11.20;;;7.70;;
68126;SDS011;54931;52.098;21.006;2023-04-25T11:55:16;10.50;;;6.80;;
68126;SDS011;54931;52.098;21.006;2023-04-25T11:57:49;11.30;;;7.50;;
68126;SDS011;54931;52.098;21.006;2023-04-25T12:00:19;8.90;;;6.30;;
68126;SDS011;54931;52.098;21.006;2023-04-25T12:02:53;8.30;;;6.10;;
68126;SDS011;54931;52.098;21.006;2023-04-25T12:05:30;10.20;;;6.50;;
68126;SDS011;54931;52.098;21.006;2023-04-25T12:08:13;8.00;;;5.90;;
68126;SDS011;54931;52.098;21.006;2023-04-25T12:10:43;9.50;;;6.10;;
68126;SDS011;54931;52.098;21.006;2023-04-25T12:13:21;8.10;;;5.90;;
68126;SDS011;54931;52.098;21.006;2023-04-25T12:15:50;7.40;;;5.80;;
68126;SDS011;54931;52.098;21.006;2023-04-25T12:18:23;11.10;;;5.80;;
68126;SDS011;54931;52.098;21.006;2023-04-25T12:20:53;8.00;;;6.00;;
68126;SDS011;54931;52.098;21.006;2023-04-25T12:23:26;8.60;;;5.70;;
68126;SDS011;54931;52.098;21.006;2023-04-25T12:25:55;9.60;;;5.90;;
68126;SDS011;54931;52.098;21.006;2023-04-25T12:28:24;7.90;;;5.60;;
68126;SDS011;54931;52.098;21.006;2023-04-25T12:30:59;8.10;;;5.70;;
68126;SDS011;54931;52.098;21.006;2023-04-25T12:33:38;9.60;;;5.50;;
68126;SDS011;54931;52.098;21.006;2023-04-25T12:36:07;10.00;;;6.10;;
68126;SDS011;54931;52.098;21.006;2023-04-25T12:38:41;9.90;;;6.20;;
68126;SDS011;54931;52.098;21.006;2023-04-25T12:41:09;9.70;;;6.20;;
68126;SDS011;54931;52.098;21.006;2023-04-25T12:43:37;9.10;;;6.10;;
68126;SDS011;54931;52.098;21.006;2023-04-25T12:46:05;8.50;;;6.00;;
68126;SDS011;54931;52.098;21.006;2023-04-25T12:48:33;8.60;;;6.00;;
68126;SDS011;54931;52.098;21.006;2023-04-25T12:51:02;8.70;;;6.40;;
68126;SDS011;54931;52.098;21.006;2023-04-25T12:53:30;8.30;;;6.60;;
68126;SDS011;54931;52.098;21.006;2023-04-25T12:55:58;11.40;;;6.50;;
68126;SDS011;54931;52.098;21.006;2023-04-25T12:58:27;11.00;;;6.50;;
68126;SDS011;54931;52.098;21.006;2023-04-25T13:00:55;10.40;;;6.90;;
68126;SDS011;54931;52.098;21.006;2023-04-25T13:03:23;9.80;;;6.50;;
68126;SDS011;54931;52.098;21.006;2023-04-25T13:05:51;9.30;;;6.80;;
68126;SDS011;54931;52.098;21.006;2023-04-25T13:08:20;12.30;;;6.60;;
68126;SDS011;54931;52.098;21.006;2023-04-25T13:10:47;9.80;;;5.80;;
68126;SDS011;54931;52.098;21.006;2023-04-25T13:13:15;11.90;;;6.70;;
68126;SDS011;54931;52.098;21.006;2023-04-25T13:15:44;9.70;;;6.60;;
68126;SDS011;54931;52.098;21.006;2023-04-25T13:18:12;9.00;;;6.10;;
68126;SDS011;54931;52.098;21.006;2023-04-25T13:20:40;10.10;;;7.10;;
68126;SDS011;54931;52.098;21.006;2023-04-25T13:23:09;10.70;;;6.90;;
68126;SDS011;54931;52.098;21.006;2023-04-25T13:25:37;10.80;;;7.70;;
68126;SDS011;54931;52.098;21.006;2023-04-25T13:28:11;12.10;;;7.50;;
68126;SDS011;54931;52.098;21.006;2023-04-25T13:30:43;10.20;;;7.20;;
68126;SDS011;54931;52.098;21.006;2023-04-25T13:33:11;11.70;;;7.60;;
68126;SDS011;54931;52.098;21.006;2023-04-25T13:35:39;12.20;;;7.20;;
68126;SDS011;54931;52.098;21.006;2023-04-25T13:38:07;11.30;;;6.80;;
68126;SDS011;54931;52.098;21.006;2023-04-25T13:40:36;11.30;;;7.40;;
68126;SDS011;54931;52.098;21.006;2023-04-25T13:43:04;13.00;;;8.00;;
68126;SDS011;54931;52.098;21.006;2023-04-25T13:45:33;11.30;;;7.80;;
68126;SDS011;54931;52.098;21.006;2023-04-25T13:48:02;13.10;;;7.70;;
68126;SDS011;54931;52.098;21.006;2023-04-25T13:50:30;12.30;;;8.00;;
68126;SDS011;54931;52.098;21.006;2023-04-25T13:52:59;11.60;;;7.90;;
68126;SDS011;54931;52.098;21.006;2023-04-25T13:55:28;17.50;;;10.70;;
68126;SDS011;54931;52.098;21.006;2023-04-25T13:57:56;17.50;;;10.40;;
68126;SDS011;54931;52.098;21.006;2023-04-25T14:00:24;17.40;;;10.90;;
68126;SDS011;54931;52.098;21.006;2023-04-25T14:02:52;14.90;;;9.90;;
68126;SDS011;54931;52.098;21.006;2023-04-25T14:05:20;15.40;;;10.50;;
68126;SDS011;54931;52.098;21.006;2023-04-25T14:07:48;13.90;;;9.30;;
68126;SDS011;54931;52.098;21.006;2023-04-25T14:10:17;18.40;;;12.00;;
68126;SDS011;54931;52.098;21.006;2023-04-25T14:12:45;21.20;;;13.10;;
68126;SDS011;54931;52.098;21.006;2023-04-25T14:15:13;19.30;;;12.50;;
68126;SDS011;54931;52.098;21.006;2023-04-25T14:17:41;25.00;;;14.20;;
68126;SDS011;54931;52.098;21.006;2023-04-25T14:20:09;35.30;;;18.70;;
68126;SDS011;54931;52.098;21.006;2023-04-25T14:22:39;19.30;;;12.10;;
68126;SDS011;54931;52.098;21.006;2023-04-25T14:25:10;30.40;;;16.60;;
68126;SDS011;54931;52.098;21.006;2023-04-25T14:27:39;34.70;;;16.10;;
68126;SDS011;54931;52.098;21.006;2023-04-25T14:30:09;22.80;;;12.60;;